Terminal Aerodrome Forecast
Issued by NWS

Home | Current Version | Previous Version | Graphics & Text | Print | Product List | Glossary On
Versions: 1 2 3 4 5 6 7 8 9 10 11 12 13 14 15 16 17 18 19 20 21 22 23 24 25 26 27 28 29 30 31 32 33
280
FTUS43 KLOT 181132
TAFMDW
TAF
KMDW 181132Z 1812/1912 01011G17KT 5SM -SHRA BR SCT004 OVC006
      TEMPO 1812/1813 2SM BR BKN004
     FM181500 36016G27KT 2SM RA BR BKN006 OVC012
     FM182000 34019G30KT 5SM -RA BKN015 OVC025
     FM182200 33018G28KT P6SM BKN025
     FM190600 32013G20KT P6SM SCT025=

USA.gov is the U.S. government's official web portal to all federal, state and local government web resources and services.